Ouargla, Algeria
Current Conditions -  °F | °C
As of 6:00 PM on Tuesday 27 Jan 2015 (Local Time) from DAUU Reporting Station
Scattered Clouds Scattered Clouds  
Wind Chill: 57°   Ceiling: Unl
Heat Index: 57°   Visibility: 6mi
Dew Point: 30°   Wind: 14mph
Humidity: 36%   Direction: 130°SE
Pressure: 30.18"   Gusts: NA
Location:  31.92°N, 5.4°E
Report Text: DAUU 271700Z 13012KT 9999 FEW046 SCT233 14/M01 Q1022
Loading
Personal Weather Stations






























Interactive Weather Map New forecast layout! Learn more

10-Day Weather Forecast

Advertisements
Track Severe Weather on mobile